Time;durP1;ratioP1;P1;durP2;ratioP2;P2;SDS_P1;SDS_P2;PMS_P1;PMS_P2;Temp;Humidity;BMP_temperature;BMP_pressure;BME280_temperature;BME280_humidity;BME280_pressure;Samples;Min_cycle;Max_cycle;Signal;HPM_P1;HPM_P2
2022/06/19 00:00:24;;;;;;;9.10;6.13;;;24.10;99.90;;;;;;4935709;29;20513;-82
2022/06/19 00:02:50;;;;;;;9.63;6.30;;;24.10;99.90;;;;;;4935838;29;20586;-81
2022/06/19 00:05:16;;;;;;;6.43;5.37;;;24.00;99.90;;;;;;4935716;29;20649;-82
2022/06/19 00:07:42;;;;;;;11.40;5.60;;;24.00;99.90;;;;;;4938866;29;20202;-82
2022/06/19 00:10:08;;;;;;;8.40;5.10;;;23.90;99.90;;;;;;4939500;29;20179;-82
2022/06/19 00:12:34;;;;;;;6.20;5.07;;;23.90;99.90;;;;;;4939238;29;20590;-82
2022/06/19 00:15:00;;;;;;;6.63;6.03;;;23.90;99.90;;;;;;4939422;29;20848;-82
2022/06/19 00:17:25;;;;;;;6.57;5.90;;;23.90;99.90;;;;;;4939253;29;20426;-82
2022/06/19 00:19:52;;;;;;;9.47;5.27;;;23.80;99.90;;;;;;4922118;29;20179;-82
2022/06/19 00:22:17;;;;;;;7.50;5.17;;;23.80;99.90;;;;;;4939120;29;20636;-82
2022/06/19 00:24:43;;;;;;;5.80;5.30;;;23.70;99.90;;;;;;4939073;29;20430;-82
2022/06/19 00:27:09;;;;;;;6.57;5.47;;;23.70;99.90;;;;;;4939116;29;20203;-82
2022/06/19 00:29:34;;;;;;;11.10;5.40;;;23.70;99.90;;;;;;4939031;29;20179;-82
2022/06/19 00:32:04;;;;;;;11.70;5.63;;;23.60;99.90;;;;;;4938897;29;20241;-81
2022/06/19 00:34:30;;;;;;;8.27;5.77;;;23.70;99.90;;;;;;4938905;29;20188;-81
2022/06/19 00:36:55;;;;;;;10.57;5.90;;;23.60;99.90;;;;;;4938861;29;20438;-81
2022/06/19 00:39:21;;;;;;;13.30;5.90;;;23.60;99.90;;;;;;4938863;29;20195;-82
2022/06/19 00:41:47;;;;;;;6.50;5.40;;;23.50;99.90;;;;;;4938770;29;20179;-82
2022/06/19 00:44:15;;;;;;;6.10;5.20;;;23.50;99.90;;;;;;4938762;29;20229;-81
2022/06/19 00:46:48;;;;;;;5.07;4.57;;;23.50;99.90;;;;;;4938710;29;20534;-82
2022/06/19 00:49:28;;;;;;;9.70;5.27;;;23.40;99.90;;;;;;4938708;29;20430;-82
2022/06/19 00:52:17;;;;;;;7.07;5.10;;;23.40;99.90;;;;;;4938718;29;20488;-82
2022/06/19 00:54:56;;;;;;;7.30;4.60;;;23.30;99.90;;;;;;4938514;29;20790;-82
2022/06/19 00:57:24;;;;;;;7.90;4.70;;;23.30;99.90;;;;;;4938496;29;20427;-82
2022/06/19 01:00:01;;;;;;;6.47;5.07;;;23.20;99.90;;;;;;4938459;29;20422;-81
2022/06/19 01:02:26;;;;;;;5.00;4.60;;;23.10;99.90;;;;;;4938339;29;20511;-81
2022/06/19 01:04:55;;;;;;;8.90;5.70;;;23.20;99.90;;;;;;4921244;29;20438;-82
2022/06/19 01:07:23;;;;;;;6.83;4.80;;;22.90;99.90;;;;;;4938439;29;20203;-82
2022/06/19 01:09:52;;;;;;;6.50;5.03;;;22.90;99.90;;;;;;4938306;29;20465;-81
2022/06/19 01:12:19;;;;;;;9.10;5.40;;;23.00;99.90;;;;;;4938163;29;20489;-82
2022/06/19 01:14:46;;;;;;;8.03;5.60;;;23.00;99.90;;;;;;4938262;29;20427;-82
2022/06/19 01:17:14;;;;;;;6.83;4.70;;;22.80;99.90;;;;;;4937726;29;20520;-82
2022/06/19 01:19:43;;;;;;;6.17;4.43;;;22.70;99.90;;;;;;4937668;29;20431;-82
2022/06/19 01:22:39;;;;;;;10.70;5.77;;;22.70;99.90;;;;;;4938266;29;20431;-82
2022/06/19 01:25:15;;;;;;;6.43;4.23;;;22.70;99.90;;;;;;4938066;29;20435;-81
2022/06/19 04:31:33;;;;;;;7.53;2.80;;;19.70;99.90;;;;;;5458623;23;21040;-83
2022/06/19 04:33:59;;;;;;;6.00;3.30;;;19.80;99.90;;;;;;4939117;29;20521;-83
2022/06/19 04:36:28;;;;;;;12.73;3.20;;;19.70;99.90;;;;;;4938996;29;20438;-83
2022/06/19 04:38:56;;;;;;;8.77;3.10;;;19.60;99.90;;;;;;4938959;29;20441;-82
2022/06/19 04:41:25;;;;;;;9.13;2.90;;;19.70;99.90;;;;;;4938944;29;20422;-83
2022/06/19 04:43:52;;;;;;;8.77;3.17;;;19.60;99.90;;;;;;4938918;29;20438;-82
2022/06/19 04:46:18;;;;;;;4.53;2.80;;;19.70;99.90;;;;;;4938813;29;20937;-83
2022/06/19 04:48:44;;;;;;;6.40;2.53;;;19.70;99.90;;;;;;4938835;29;20462;-83
2022/06/19 04:51:10;;;;;;;7.20;3.20;;;19.60;99.90;;;;;;4938818;29;20816;-83
2022/06/19 04:53:38;;;;;;;12.07;3.50;;;19.40;99.90;;;;;;4938655;29;20426;-83
2022/06/19 04:56:04;;;;;;;8.60;3.30;;;19.10;99.90;;;;;;4922190;29;20583;-83
2022/06/19 04:58:30;;;;;;;12.10;3.53;;;19.00;99.90;;;;;;4938616;29;20438;-83
2022/06/19 05:00:56;;;;;;;8.03;3.23;;;19.10;99.90;;;;;;4938843;29;20431;-83
2022/06/19 05:03:23;;;;;;;10.30;3.00;;;19.10;99.90;;;;;;4938568;29;20187;-83
2022/06/19 05:05:49;;;;;;;10.90;3.37;;;19.10;99.90;;;;;;4937645;29;20953;-83
2022/06/19 05:08:15;;;;;;;9.03;3.60;;;19.20;99.90;;;;;;4938591;29;20462;-84
2022/06/19 05:10:41;;;;;;;6.83;3.43;;;19.30;99.90;;;;;;4938437;29;20192;-83
2022/06/19 05:13:18;;;;;;;5.77;2.70;;;19.20;99.90;;;;;;4938384;29;20488;-83
2022/06/19 05:15:45;;;;;;;7.73;3.17;;;19.20;99.90;;;;;;4938298;29;20964;-83
2022/06/19 05:18:11;;;;;;;5.33;2.90;;;19.20;99.90;;;;;;4938503;29;20497;-83
2022/06/19 05:20:37;;;;;;;12.87;2.80;;;19.30;99.90;;;;;;4938138;29;20940;-83
2022/06/19 05:23:03;;;;;;;8.30;3.80;;;19.30;99.90;;;;;;4938248;29;20179;-83
2022/06/19 05:25:28;;;;;;;14.10;3.40;;;19.20;99.90;;;;;;4938062;29;20431;-83
2022/06/19 05:27:54;;;;;;;14.50;3.77;;;19.10;99.90;;;;;;4937472;29;20434;-83
2022/06/19 05:30:19;;;;;;;11.13;3.30;;;19.20;99.90;;;;;;4937017;29;20187;-82
2022/06/19 05:32:45;;;;;;;11.60;3.00;;;19.20;99.90;;;;;;4937174;29;20215;-83
2022/06/19 05:35:10;;;;;;;8.40;3.37;;;19.30;99.90;;;;;;4937467;29;20210;-83
2022/06/19 05:37:36;;;;;;;11.13;3.97;;;19.00;99.90;;;;;;4937230;29;20187;-83
2022/06/19 05:40:02;;;;;;;8.50;2.90;;;19.10;99.90;;;;;;4937234;29;20691;-83
2022/06/19 05:42:28;;;;;;;9.33;3.27;;;19.20;99.90;;;;;;4937041;29;20183;-83
2022/06/19 05:44:53;;;;;;;9.40;2.60;;;19.20;99.90;;;;;;4937294;29;20945;-83
2022/06/19 05:47:19;;;;;;;14.30;3.50;;;19.40;99.90;;;;;;4936956;29;20210;-83
2022/06/19 05:49:44;;;;;;;13.93;3.60;;;19.20;99.90;;;;;;4936787;29;20183;-83
2022/06/19 05:52:20;;;;;;;17.03;4.13;;;19.20;99.90;;;;;;4936782;29;20627;-83
2022/06/19 05:54:46;;;;;;;17.03;4.10;;;19.20;99.90;;;;;;4936882;29;20535;-83
2022/06/19 05:57:12;;;;;;;12.87;3.77;;;19.20;99.90;;;;;;4936891;29;20435;-83
2022/06/19 05:59:38;;;;;;;9.63;3.20;;;19.30;99.90;;;;;;4936428;29;20993;-83
2022/06/19 06:02:04;;;;;;;12.80;3.53;;;19.40;99.90;;;;;;4936570;29;20454;-84
2022/06/19 06:04:30;;;;;;;10.60;3.67;;;19.50;99.90;;;;;;4936151;29;20521;-83
2022/06/19 06:06:55;;;;;;;11.30;3.57;;;19.40;99.90;;;;;;4919720;29;20438;-84
2022/06/19 06:09:21;;;;;;;10.07;2.97;;;19.40;99.90;;;;;;4936217;29;20713;-83
2022/06/19 06:11:47;;;;;;;8.17;4.27;;;19.30;99.90;;;;;;4935899;29;20210;-84
2022/06/19 06:14:12;;;;;;;16.03;4.03;;;19.40;99.90;;;;;;4937094;29;20635;-84
2022/06/19 06:16:38;;;;;;;7.80;3.17;;;19.70;99.90;;;;;;4937068;29;20186;-84
2022/06/19 06:19:04;;;;;;;7.53;3.70;;;19.70;99.90;;;;;;4937118;29;20253;-84
2022/06/19 06:21:30;;;;;;;11.60;3.30;;;19.80;99.90;;;;;;4937262;29;20180;-84
2022/06/19 06:23:55;;;;;;;11.37;3.57;;;19.70;99.90;;;;;;4937550;29;20183;-84
2022/06/19 06:26:27;;;;;;;10.60;3.00;;;19.80;99.90;;;;;;4937141;29;20789;-84
2022/06/19 06:28:54;;;;;;;8.83;2.73;;;20.00;99.90;;;;;;4937115;29;20591;-84
2022/06/19 06:31:20;;;;;;;12.23;2.87;;;20.00;99.90;;;;;;4936601;29;20825;-84
2022/06/19 06:33:46;;;;;;;9.10;3.53;;;20.00;99.90;;;;;;4936947;29;20912;-84
2022/06/19 06:36:13;;;;;;;10.53;3.53;;;20.20;99.90;;;;;;4936951;29;20458;-83
2022/06/19 06:38:39;;;;;;;7.33;2.77;;;20.30;99.90;;;;;;4936844;29;20506;-83
2022/06/19 06:41:07;;;;;;;12.67;2.80;;;20.30;99.90;;;;;;4936830;29;20427;-83
2022/06/19 06:43:35;;;;;;;18.17;5.53;;;20.20;99.90;;;;;;4936716;29;20187;-83
2022/06/19 06:46:06;;;;;;;15.30;4.10;;;20.30;99.90;;;;;;4936749;29;20426;-83
2022/06/19 06:48:31;;;;;;;13.40;3.40;;;20.20;99.90;;;;;;4936662;29;20439;-83
2022/06/19 06:50:57;;;;;;;9.30;3.13;;;20.20;99.90;;;;;;4936669;29;20439;-84
2022/06/19 06:53:22;;;;;;;8.33;2.93;;;20.30;99.90;;;;;;4936820;29;20223;-84
2022/06/19 06:55:48;;;;;;;9.93;3.47;;;20.10;99.90;;;;;;4936591;29;20631;-84
2022/06/19 06:58:13;;;;;;;15.27;3.70;;;20.30;99.90;;;;;;4936493;29;20238;-83
2022/06/19 07:00:40;;;;;;;5.47;3.10;;;20.50;99.90;;;;;;4936255;29;20179;-83
2022/06/19 07:03:06;;;;;;;14.93;3.37;;;20.40;99.90;;;;;;4936333;29;20214;-84
2022/06/19 07:05:32;;;;;;;13.77;3.60;;;20.50;99.90;;;;;;4936412;29;20463;-83
2022/06/19 07:07:58;;;;;;;14.70;4.20;;;20.70;99.90;;;;;;4936308;29;20491;-84
2022/06/19 07:10:24;;;;;;;13.70;3.90;;;20.80;99.90;;;;;;4936266;29;20175;-84
2022/06/19 07:12:49;;;;;;;9.43;2.97;;;20.80;99.90;;;;;;4936275;29;20546;-84
2022/06/19 07:15:16;;;;;;;8.83;3.60;;;20.80;99.90;;;;;;4935639;29;20179;-83
2022/06/19 07:17:41;;;;;;;12.13;3.50;;;20.70;99.90;;;;;;4935902;29;20206;-84
2022/06/19 07:20:08;;;;;;;6.60;3.10;;;20.70;99.90;;;;;;4936237;29;20431;-83
2022/06/19 07:22:34;;;;;;;9.03;3.63;;;20.80;99.90;;;;;;4936190;29;20186;-83
2022/06/19 07:25:00;;;;;;;8.97;3.97;;;20.70;99.90;;;;;;4936077;29;20434;-83
2022/06/19 07:27:26;;;;;;;9.83;3.37;;;20.80;99.90;;;;;;4936138;29;20387;-83
2022/06/19 07:29:51;;;;;;;13.67;3.87;;;20.60;99.90;;;;;;4936229;29;20427;-83
2022/06/19 07:32:17;;;;;;;14.97;4.50;;;20.80;99.90;;;;;;4935801;29;20234;-83
2022/06/19 07:34:42;;;;;;;15.10;3.13;;;20.80;99.90;;;;;;4918938;29;20175;-82
2022/06/19 07:37:13;;;;;;;24.93;14.60;;;20.90;99.90;;;;;;4935994;29;20276;-82
2022/06/19 07:39:39;;;;;;;9.80;3.33;;;21.10;99.90;;;;;;4935228;29;20175;-83
2022/06/19 07:42:08;;;;;;;10.20;3.40;;;21.10;99.90;;;;;;4936058;29;20427;-83
2022/06/19 07:44:37;;;;;;;7.27;4.00;;;21.20;99.90;;;;;;4935790;29;20439;-83
2022/06/19 07:52:33;;;;;;;13.13;3.80;;;21.50;99.90;;;;;;4935951;29;20484;-83
2022/06/19 07:54:59;;;;;;;8.97;3.03;;;21.60;99.90;;;;;;4935881;29;20781;-83
2022/06/19 07:57:26;;;;;;;16.10;4.40;;;21.70;99.90;;;;;;4935839;29;20186;-83
2022/06/19 07:59:51;;;;;;;7.97;4.63;;;21.40;99.90;;;;;;4936289;29;20274;-83
2022/06/19 08:02:17;;;;;;;10.07;3.30;;;21.50;99.90;;;;;;4935852;29;20442;-83
2022/06/19 08:04:42;;;;;;;10.80;3.90;;;21.60;99.90;;;;;;4935645;29;20558;-83
2022/06/19 08:07:14;;;;;;;8.80;3.27;;;21.60;99.90;;;;;;4935834;29;20203;-83
2022/06/19 08:09:40;;;;;;;9.30;3.70;;;21.60;99.90;;;;;;4935770;29;20183;-83
2022/06/19 08:12:06;;;;;;;10.07;3.90;;;21.50;99.90;;;;;;4935590;29;20829;-83
2022/06/19 08:14:32;;;;;;;16.37;4.03;;;21.50;99.90;;;;;;4935564;29;20482;-83
2022/06/19 08:16:57;;;;;;;14.17;4.30;;;21.70;99.90;;;;;;4935933;29;20419;-83
2022/06/19 08:19:23;;;;;;;21.83;3.70;;;21.70;99.90;;;;;;4935686;29;20534;-83
2022/06/19 08:21:49;;;;;;;9.73;3.20;;;21.70;99.90;;;;;;4935652;29;20569;-83
2022/06/19 08:24:14;;;;;;;10.80;3.37;;;21.80;99.90;;;;;;4935799;29;20211;-83
2022/06/19 08:26:40;;;;;;;10.93;3.43;;;21.90;99.90;;;;;;4935773;29;20327;-83
2022/06/19 08:29:05;;;;;;;7.30;3.27;;;22.00;99.90;;;;;;4939208;29;20179;-83
2022/06/19 08:31:32;;;;;;;12.50;3.53;;;22.00;99.90;;;;;;4938819;29;20242;-83
2022/06/19 08:33:58;;;;;;;15.03;3.47;;;22.00;99.90;;;;;;4939149;29;20685;-82
2022/06/19 08:36:25;;;;;;;14.03;4.10;;;22.00;99.90;;;;;;4938937;29;20521;-82
2022/06/19 08:38:56;;;;;;;10.00;3.40;;;22.20;99.90;;;;;;4939306;29;20189;-83
2022/06/19 08:41:56;;;;;;;6.13;3.13;;;22.10;99.90;;;;;;4939001;29;20914;-83
2022/06/19 08:44:44;;;;;;;9.03;4.30;;;22.10;99.90;;;;;;4939211;29;20757;-83
2022/06/19 08:47:33;;;;;;;12.83;3.37;;;22.00;99.90;;;;;;4938922;29;20441;-83
2022/06/19 08:50:11;;;;;;;14.77;3.97;;;22.00;99.90;;;;;;4939036;29;20427;-83
2022/06/19 08:53:14;;;;;;;6.67;3.03;;;22.10;99.90;;;;;;4938595;29;20516;-82
2022/06/19 08:55:55;;;;;;;8.67;3.77;;;22.20;99.90;;;;;;4938805;29;20478;-82
2022/06/19 08:58:43;;;;;;;16.67;4.93;;;22.30;99.90;;;;;;4938565;29;20787;-82
2022/06/19 09:01:20;;;;;;;9.17;3.70;;;22.30;99.90;;;;;;4938613;29;20434;-82
2022/06/19 09:07:04;;;;;;;10.93;3.73;;;22.30;99.90;;;;;;4930230;29;20530;-82
2022/06/19 09:09:48;;;;;;;15.60;3.50;;;22.40;99.90;;;;;;4938321;29;20478;-82
2022/06/19 09:12:39;;;;;;;10.63;3.23;;;22.40;99.90;;;;;;4938173;29;20563;-82
2022/06/19 09:15:25;;;;;;;12.07;4.17;;;22.50;99.90;;;;;;4925470;29;20467;-82
2022/06/19 09:18:03;;;;;;;10.57;3.60;;;22.50;99.90;;;;;;4937683;29;20446;-82
2022/06/19 09:20:45;;;;;;;14.20;4.73;;;22.50;99.90;;;;;;4938165;29;20562;-82
2022/06/19 09:23:16;;;;;;;12.93;3.97;;;22.40;99.90;;;;;;4938277;29;20427;-82
2022/06/19 09:25:54;;;;;;;9.07;3.87;;;22.50;99.90;;;;;;4938022;29;20427;-83
2022/06/19 09:28:23;;;;;;;11.60;4.33;;;22.60;99.90;;;;;;4938094;29;20425;-82
2022/06/19 09:30:55;;;;;;;7.07;3.77;;;22.60;99.90;;;;;;4937901;29;20458;-81
2022/06/19 09:33:32;;;;;;;8.63;3.63;;;22.80;99.90;;;;;;4937810;29;20809;-82
2022/06/19 09:36:13;;;;;;;8.43;3.53;;;22.80;99.90;;;;;;4937928;29;20454;-82
2022/06/19 09:38:56;;;;;;;9.60;3.40;;;22.90;99.90;;;;;;4937035;29;20419;-82
2022/06/19 09:41:32;;;;;;;11.00;3.47;;;23.10;99.90;;;;;;4937759;29;20411;-82
2022/06/19 09:44:32;;;;;;;10.67;3.50;;;23.10;99.90;;;;;;4937863;29;20472;-82
2022/06/19 09:47:12;;;;;;;9.50;4.10;;;23.00;99.90;;;;;;4937699;29;20423;-82
2022/06/19 09:49:50;;;;;;;11.10;3.13;;;22.90;99.90;;;;;;4937802;29;20439;-82
2022/06/19 09:52:22;;;;;;;11.80;3.40;;;22.90;99.90;;;;;;4937500;29;20554;-82
2022/06/19 09:55:16;;;;;;;12.63;3.57;;;22.80;99.90;;;;;;4937483;29;20419;-81
2022/06/19 09:57:51;;;;;;;10.43;4.10;;;22.80;99.90;;;;;;4928719;29;20950;-82
2022/06/19 10:00:23;;;;;;;12.70;3.93;;;22.90;99.90;;;;;;4937582;29;20430;-81
2022/06/19 10:03:00;;;;;;;13.77;4.00;;;22.90;99.90;;;;;;4937635;29;20443;-82
2022/06/19 10:05:42;;;;;;;7.43;3.80;;;22.80;99.90;;;;;;4937344;29;20433;-82
2022/06/19 10:08:26;;;;;;;9.13;3.67;;;22.70;99.90;;;;;;4937387;29;20434;-82
2022/06/19 10:10:58;;;;;;;9.87;4.33;;;22.60;99.90;;;;;;4937282;29;20941;-82
2022/06/19 10:14:02;;;;;;;11.53;3.67;;;22.30;99.90;;;;;;4937070;29;20479;-82
2022/06/19 10:16:45;;;;;;;12.40;3.57;;;22.40;99.90;;;;;;4900893;29;20984;-82
2022/06/19 10:19:19;;;;;;;11.00;3.47;;;22.30;99.90;;;;;;4937053;29;20434;-82
2022/06/19 10:22:23;;;;;;;11.53;4.20;;;22.40;99.90;;;;;;4937110;29;20509;-82
2022/06/19 10:25:14;;;;;;;12.20;3.40;;;22.50;99.90;;;;;;4917460;29;20896;-82
2022/06/19 10:27:55;;;;;;;13.43;3.87;;;22.70;99.90;;;;;;4936975;29;20530;-82
2022/06/19 10:30:49;;;;;;;15.37;4.70;;;22.60;99.90;;;;;;4936759;29;20486;-82
2022/06/19 10:33:38;;;;;;;8.37;3.53;;;22.80;99.90;;;;;;4936283;29;20456;-80
2022/06/19 10:36:18;;;;;;;12.87;3.40;;;22.90;99.90;;;;;;4892181;29;20431;-80
2022/06/19 10:38:56;;;;;;;6.97;3.77;;;23.20;99.90;;;;;;4936561;29;20423;-77
2022/06/19 10:42:07;;;;;;;9.50;4.13;;;23.10;99.90;;;;;;4936440;29;20419;-79
2022/06/19 10:44:56;;;;;;;11.55;4.40;;;23.10;99.90;;;;;;4935803;29;20442;-79
2022/06/19 10:47:49;;;;;;;8.63;4.00;;;23.00;99.90;;;;;;4936533;29;20175;-79
2022/06/19 10:50:47;;;;;;;13.23;3.93;;;22.80;99.90;;;;;;4936475;29;20427;-78
2022/06/19 10:53:13;;;;;;;12.00;3.47;;;22.70;99.90;;;;;;4936520;29;20533;-77
2022/06/19 10:55:56;;;;;;;9.77;4.57;;;22.80;99.90;;;;;;4936446;29;20423;-78
2022/06/19 10:58:28;;;;;;;14.43;4.40;;;22.90;99.90;;;;;;4936687;29;20186;-78
2022/06/19 11:00:59;;;;;;;18.23;4.03;;;22.80;99.90;;;;;;4936588;29;20422;-78
2022/06/19 11:04:07;;;;;;;5.80;3.10;;;22.80;99.90;;;;;;4936528;29;20814;-78
2022/06/19 11:06:51;;;;;;;11.83;3.40;;;22.90;99.90;;;;;;4936349;29;20427;-78
2022/06/19 11:09:29;;;;;;;12.50;4.37;;;23.10;99.90;;;;;;4936248;29;20438;-78
2022/06/19 11:12:00;;;;;;;12.27;4.10;;;23.10;99.90;;;;;;4936344;29;20474;-78
2022/06/19 11:14:26;;;;;;;11.70;3.50;;;23.10;99.90;;;;;;4936289;29;20435;-78
2022/06/19 11:17:00;;;;;;;14.17;4.00;;;22.80;99.90;;;;;;4936299;29;20427;-78
2022/06/19 11:19:47;;;;;;;11.50;3.40;;;23.10;99.90;;;;;;4936514;29;20662;-78
2022/06/19 11:22:19;;;;;;;6.40;3.13;;;23.10;99.90;;;;;;4936070;29;20429;-78
2022/06/19 11:24:45;;;;;;;11.93;3.83;;;23.10;99.90;;;;;;4936390;29;20827;-78
2022/06/19 11:27:18;;;;;;;9.33;3.50;;;23.30;99.90;;;;;;4936261;29;20997;-78
2022/06/19 11:29:48;;;;;;;12.40;3.30;;;23.30;99.90;;;;;;4935952;29;20430;-78
2022/06/19 11:32:17;;;;;;;17.30;4.43;;;23.10;99.90;;;;;;4935699;29;20471;-78
2022/06/19 11:34:54;;;;;;;9.00;3.33;;;23.30;99.90;;;;;;4936042;29;20462;-78
2022/06/19 11:37:28;;;;;;;7.80;4.07;;;23.30;99.90;;;;;;4935744;29;20786;-78
2022/06/19 11:40:12;;;;;;;11.93;3.90;;;23.30;99.90;;;;;;4919070;29;20807;-78
2022/06/19 11:42:59;;;;;;;14.70;3.40;;;23.30;99.90;;;;;;4935964;29;20784;-78
2022/06/19 11:45:29;;;;;;;12.20;3.87;;;23.60;99.90;;;;;;4935758;29;20435;-78
2022/06/19 11:47:54;;;;;;;9.70;4.10;;;23.80;99.90;;;;;;4935907;29;20518;-78
2022/06/19 11:50:22;;;;;;;18.90;4.83;;;23.90;99.90;;;;;;4935830;29;20887;-78
2022/06/19 11:53:01;;;;;;;8.33;3.90;;;23.80;99.90;;;;;;4935705;29;20214;-77
2022/06/19 11:55:35;;;;;;;10.97;3.80;;;24.00;99.90;;;;;;4935831;29;20427;-82
2022/06/19 11:58:26;;;;;;;14.90;4.77;;;24.10;99.90;;;;;;4936055;29;20466;-83
2022/06/19 12:00:58;;;;;;;10.07;3.67;;;24.10;99.90;;;;;;4935916;29;20423;-83
2022/06/19 12:03:30;;;;;;;12.13;4.27;;;23.70;99.90;;;;;;4938784;29;20430;-82
2022/06/19 12:06:03;;;;;;;10.07;4.27;;;23.50;99.90;;;;;;4939598;29;20438;-83
2022/06/19 12:08:34;;;;;;;20.57;4.20;;;23.50;99.90;;;;;;4939560;29;20467;-83
2022/06/19 12:11:03;;;;;;;14.73;4.30;;;23.70;99.90;;;;;;4939492;29;20427;-83
2022/06/19 12:13:38;;;;;;;6.83;3.93;;;23.90;99.90;;;;;;4939393;29;20982;-83
2022/06/19 12:16:20;;;;;;;10.23;3.97;;;24.00;99.90;;;;;;4939518;29;20831;-83
2022/06/19 12:18:46;;;;;;;9.67;4.13;;;24.20;99.90;;;;;;4939650;29;21074;-83
2022/06/19 12:21:17;;;;;;;8.27;3.60;;;24.00;99.90;;;;;;4939368;29;20782;-82
2022/06/19 12:23:56;;;;;;;15.70;3.70;;;24.10;99.90;;;;;;4939553;29;20441;-82
2022/06/19 12:26:32;;;;;;;11.27;4.90;;;24.00;99.90;;;;;;4939511;29;20812;-82
2022/06/19 12:29:05;;;;;;;9.77;4.87;;;24.10;99.90;;;;;;4922371;29;20438;-82
2022/06/19 12:31:38;;;;;;;8.60;4.13;;;24.10;99.90;;;;;;4939169;29;20503;-83
2022/06/19 12:34:18;;;;;;;12.00;4.30;;;24.30;99.90;;;;;;4939630;29;20430;-83
2022/06/19 12:36:44;;;;;;;12.00;4.37;;;24.40;99.90;;;;;;4922558;29;21008;-83
2022/06/19 12:39:18;;;;;;;8.40;3.40;;;24.50;99.90;;;;;;4939343;29;20423;-83
2022/06/19 12:42:13;;;;;;;13.43;3.30;;;24.60;99.90;;;;;;4939256;29;20189;-83
2022/06/19 12:44:50;;;;;;;9.60;3.87;;;24.60;99.90;;;;;;4922018;29;20422;-83
2022/06/19 12:47:28;;;;;;;8.80;3.53;;;24.30;99.90;;;;;;4939103;29;20429;-83
2022/06/19 12:50:17;;;;;;;11.27;4.43;;;24.30;99.90;;;;;;4939648;29;20949;-83
2022/06/19 12:53:10;;;;;;;17.07;3.80;;;24.50;99.90;;;;;;4939244;29;20482;-82
2022/06/19 12:55:53;;;;;;;8.57;3.23;;;24.70;99.90;;;;;;4939098;29;20989;-83
2022/06/19 12:58:21;;;;;;;8.87;4.20;;;24.90;99.90;;;;;;4939070;29;20494;-83
2022/06/19 13:00:56;;;;;;;9.53;3.90;;;25.10;99.90;;;;;;4939036;29;20427;-83
2022/06/19 13:03:52;;;;;;;11.87;4.50;;;25.10;99.90;;;;;;4939161;29;20516;-83
2022/06/19 13:06:55;;;;;;;17.47;4.77;;;25.20;99.90;;;;;;4938813;29;20438;-82
2022/06/19 13:09:46;;;;;;;14.00;4.43;;;25.00;99.90;;;;;;4843025;29;20439;-82
2022/06/19 13:12:29;;;;;;;8.60;4.57;;;25.00;99.90;;;;;;4936591;29;20513;-83
2022/06/19 13:15:10;;;;;;;13.73;4.50;;;25.30;99.90;;;;;;4937746;29;20492;-82
2022/06/19 13:17:51;;;;;;;11.80;4.20;;;25.40;99.90;;;;;;4938564;29;20183;-83
2022/06/19 13:20:35;;;;;;;20.37;5.40;;;25.60;99.90;;;;;;4938302;29;20435;-82
2022/06/19 13:23:22;;;;;;;11.53;3.83;;;25.60;99.90;;;;;;4938554;29;20419;-83
2022/06/19 13:29:18;;;;;;;10.53;4.60;;;25.60;99.90;;;;;;4938517;29;20442;-83
2022/06/19 13:31:50;;;;;;;11.00;3.70;;;25.70;99.90;;;;;;4938017;29;20518;-82
2022/06/19 13:34:51;;;;;;;12.70;4.37;;;25.80;99.90;;;;;;4937941;29;20517;-82
2022/06/19 13:37:53;;;;;;;14.77;4.90;;;25.70;99.90;;;;;;4937780;29;20459;-82
2022/06/19 13:40:42;;;;;;;10.50;2.70;;;25.90;99.90;;;;;;4937973;29;20439;-82
2022/06/19 13:43:51;;;;;;;8.00;3.80;;;25.90;99.90;;;;;;4937989;29;20834;-83
2022/06/19 13:46:24;;;;;;;11.30;3.77;;;25.90;99.90;;;;;;4937856;29;20430;-83
2022/06/19 13:48:58;;;;;;;9.33;4.17;;;26.00;99.90;;;;;;4937862;29;20423;-82
2022/06/19 13:51:31;;;;;;;14.90;3.73;;;26.10;99.90;;;;;;4937661;29;20430;-83
2022/06/19 13:54:23;;;;;;;12.97;5.60;;;26.10;99.90;;;;;;4937613;29;20941;-82
2022/06/19 13:57:06;;;;;;;8.10;4.20;;;26.20;99.90;;;;;;4937467;29;20423;-82
2022/06/19 13:59:48;;;;;;;8.10;4.30;;;26.20;99.50;;;;;;4937674;29;20438;-82
2022/06/19 14:02:47;;;;;;;8.20;3.50;;;26.30;99.50;;;;;;4937609;29;20494;-82
2022/06/19 14:05:34;;;;;;;10.23;4.30;;;26.40;99.90;;;;;;4937409;29;20816;-82
2022/06/19 14:08:24;;;;;;;11.13;4.30;;;26.20;98.80;;;;;;4937431;29;20466;-82
2022/06/19 14:11:01;;;;;;;10.63;3.83;;;25.60;98.90;;;;;;4937354;29;20429;-82
2022/06/19 14:13:36;;;;;;;9.03;3.70;;;25.50;99.00;;;;;;4937231;29;20482;-83
2022/06/19 14:16:28;;;;;;;12.47;3.60;;;25.50;99.90;;;;;;4937250;29;20501;-82
2022/06/19 14:19:23;;;;;;;14.43;4.70;;;25.50;99.90;;;;;;4924638;29;20455;-82
2022/06/19 14:22:12;;;;;;;9.27;4.97;;;25.70;99.90;;;;;;4937244;29;20533;-82
2022/06/19 14:24:56;;;;;;;8.87;3.43;;;25.80;99.50;;;;;;4936833;29;20458;-82
2022/06/19 14:27:39;;;;;;;10.27;4.10;;;26.00;99.90;;;;;;4937018;29;20433;-82
2022/06/19 14:30:13;;;;;;;5.20;3.23;;;26.30;99.90;;;;;;4937120;29;20427;-82
2022/06/19 14:32:44;;;;;;;6.50;3.30;;;26.50;99.60;;;;;;4936657;29;20874;-82
2022/06/19 14:35:09;;;;;;;10.33;3.17;;;26.60;99.10;;;;;;4936768;29;20424;-83
2022/06/19 14:37:55;;;;;;;10.90;2.90;;;26.50;97.90;;;;;;4936792;29;20439;-82
2022/06/19 14:40:23;;;;;;;7.20;3.17;;;26.60;97.50;;;;;;4936742;29;20709;-83
2022/06/19 14:42:55;;;;;;;6.73;3.17;;;26.50;97.80;;;;;;4936738;29;20474;-83
2022/06/19 14:45:24;;;;;;;7.67;2.83;;;26.50;97.00;;;;;;4936726;29;20785;-82
2022/06/19 14:48:04;;;;;;;14.83;3.43;;;26.50;98.90;;;;;;4936721;29;20423;-82
2022/06/19 14:50:48;;;;;;;12.07;3.57;;;26.50;97.60;;;;;;4936736;29;20422;-83
2022/06/19 14:53:37;;;;;;;7.23;3.13;;;26.50;98.60;;;;;;4936348;29;20478;-83
2022/06/19 14:56:11;;;;;;;6.23;3.10;;;26.30;97.30;;;;;;4936639;29;20944;-82
2022/06/19 14:58:49;;;;;;;19.30;4.53;;;26.10;97.40;;;;;;4936487;29;20921;-82
2022/06/19 15:01:25;;;;;;;7.77;3.73;;;26.10;97.30;;;;;;4936451;29;20843;-83
2022/06/19 15:04:00;;;;;;;6.43;2.83;;;26.10;97.30;;;;;;4936353;29;20473;-82
2022/06/19 15:07:08;;;;;;;7.83;2.50;;;26.10;97.80;;;;;;4936277;29;20552;-82
2022/06/19 15:09:44;;;;;;;10.23;2.87;;;26.10;97.30;;;;;;4919493;29;20470;-82
2022/06/19 15:12:12;;;;;;;8.03;2.57;;;26.00;96.60;;;;;;4936313;29;20481;-83
2022/06/19 15:14:47;;;;;;;13.43;5.20;;;25.80;97.00;;;;;;4936224;29;20418;-83
2022/06/19 15:17:28;;;;;;;10.87;3.00;;;25.80;97.20;;;;;;4936176;29;20422;-82
2022/06/19 15:19:54;;;;;;;8.27;3.03;;;25.50;97.20;;;;;;4936088;29;20968;-82
2022/06/19 15:22:26;;;;;;;8.03;3.30;;;25.40;97.90;;;;;;4936140;29;20510;-83
2022/06/19 15:24:51;;;;;;;6.97;3.63;;;25.30;97.60;;;;;;4936208;29;20934;-83
2022/06/19 15:27:23;;;;;;;6.00;2.97;;;25.30;98.40;;;;;;4935803;29;20512;-83
2022/06/19 15:29:49;;;;;;;7.93;2.90;;;25.30;98.60;;;;;;4936163;29;20179;-83
2022/06/19 15:32:23;;;;;;;5.50;2.83;;;25.10;98.00;;;;;;4935959;29;20485;-83
2022/06/19 15:35:18;;;;;;;5.77;2.70;;;25.00;97.60;;;;;;4936228;29;20217;-83
2022/06/19 15:37:52;;;;;;;10.80;3.63;;;24.90;97.70;;;;;;4935461;29;20450;-83
2022/06/19 15:40:25;;;;;;;10.30;3.07;;;25.00;97.60;;;;;;4935942;29;20462;-83
2022/06/19 15:43:16;;;;;;;8.53;2.97;;;24.90;97.10;;;;;;4936222;29;20427;-83
2022/06/19 15:46:09;;;;;;;12.50;2.70;;;24.80;97.70;;;;;;4936618;29;20510;-82
2022/06/19 15:48:38;;;;;;;5.73;2.17;;;24.70;97.80;;;;;;4936027;29;20430;-83
2022/06/19 15:51:26;;;;;;;9.67;2.07;;;24.50;97.50;;;;;;4935838;29;20431;-82
2022/06/19 15:54:18;;;;;;;6.80;2.80;;;24.50;97.40;;;;;;4935966;29;20460;-83
2022/06/19 15:56:47;;;;;;;11.50;3.87;;;24.20;97.80;;;;;;4935980;29;20817;-83
2022/06/19 15:59:26;;;;;;;6.50;2.50;;;24.00;97.90;;;;;;4935857;29;20930;-83
2022/06/19 16:01:55;;;;;;;7.13;3.00;;;24.00;98.50;;;;;;4935794;29;20518;-82
2022/06/19 16:04:37;;;;;;;11.07;2.50;;;23.70;98.00;;;;;;4935841;29;20498;-83
2022/06/19 16:07:10;;;;;;;8.93;3.07;;;23.60;98.80;;;;;;4935819;29;20448;-83
2022/06/19 16:09:53;;;;;;;9.10;2.80;;;23.60;99.20;;;;;;4935752;29;20450;-83
2022/06/19 16:12:32;;;;;;;7.63;2.60;;;23.80;99.40;;;;;;4935673;29;20482;-83
2022/06/19 16:15:27;;;;;;;7.43;2.70;;;23.60;98.90;;;;;;4935825;29;20533;-83
2022/06/19 16:17:59;;;;;;;6.30;2.53;;;23.50;99.60;;;;;;4915438;29;21016;-83
2022/06/19 16:20:32;;;;;;;8.87;2.60;;;23.70;99.50;;;;;;4935687;29;20518;-83
2022/06/19 16:22:58;;;;;;;5.53;2.20;;;23.80;99.90;;;;;;4935632;29;20479;-83
2022/06/19 16:25:40;;;;;;;4.67;2.20;;;23.70;99.20;;;;;;4935641;29;20906;-83
2022/06/19 16:28:18;;;;;;;4.07;2.40;;;23.90;99.00;;;;;;4935685;29;20442;-83
2022/06/19 16:30:47;;;;;;;6.87;2.33;;;24.00;97.30;;;;;;4935452;29;20470;-83
2022/06/19 16:33:21;;;;;;;6.43;2.23;;;23.90;98.10;;;;;;4935480;29;20477;-83